createdAt,value
2022-08-11T00:02:01.491Z,1.80
2022-08-11T00:04:37.362Z,2.00
2022-08-11T00:07:07.135Z,2.20
2022-08-11T00:09:40.178Z,1.98
2022-08-11T00:12:18.412Z,2.92
2022-08-11T00:14:55.431Z,2.10
2022-08-11T00:17:29.608Z,1.77
2022-08-11T00:20:14.102Z,2.25
2022-08-11T00:22:48.070Z,2.05
2022-08-11T00:25:22.328Z,1.77
2022-08-11T00:27:50.887Z,2.28
2022-08-11T00:30:19.066Z,1.80
2022-08-11T00:32:56.774Z,2.15
2022-08-11T00:35:51.693Z,1.52
2022-08-11T00:38:26.645Z,2.03
2022-08-11T00:41:32.015Z,2.03
2022-08-11T00:44:27.119Z,2.40
2022-08-11T00:47:17.164Z,2.60
2022-08-11T00:50:06.725Z,2.20
2022-08-11T00:53:06.265Z,1.75
2022-08-11T00:55:56.223Z,1.55
2022-08-11T00:58:42.978Z,1.90
2022-08-11T01:01:18.280Z,2.47
2022-08-11T01:04:11.347Z,1.70
2022-08-11T01:06:59.783Z,1.70
2022-08-11T01:09:37.468Z,2.40
2022-08-11T01:12:19.536Z,1.90
2022-08-11T01:15:15.756Z,1.90
2022-08-11T01:18:08.886Z,2.10
2022-08-11T01:21:08.122Z,2.13
2022-08-11T01:23:54.775Z,1.70
2022-08-11T01:26:41.117Z,1.98
2022-08-11T01:29:18.455Z,1.85
2022-08-11T01:32:05.036Z,1.90
2022-08-11T01:35:11.025Z,1.73
2022-08-11T01:38:03.425Z,1.63
2022-08-11T01:40:53.536Z,1.83
2022-08-11T01:43:55.564Z,2.00
2022-08-11T01:46:33.807Z,1.83
2022-08-11T01:49:29.015Z,2.40
2022-08-11T01:52:30.159Z,1.83
2022-08-11T01:55:28.125Z,1.92
2022-08-11T01:58:01.331Z,1.70
2022-08-11T02:00:32.201Z,2.10
2022-08-11T02:06:31.318Z,1.98
2022-08-11T02:09:13.587Z,1.60
2022-08-11T02:11:49.915Z,1.63
2022-08-11T02:14:35.088Z,1.77
2022-08-11T02:17:13.598Z,1.60
2022-08-11T02:20:42.015Z,1.77
2022-08-11T02:24:03.848Z,1.60
2022-08-11T02:26:36.826Z,1.40
2022-08-11T02:29:26.765Z,1.67
2022-08-11T02:32:30.674Z,2.88
2022-08-11T02:35:29.596Z,1.90
2022-08-11T02:38:45.618Z,1.90
2022-08-11T02:42:03.086Z,1.60
2022-08-11T02:44:37.136Z,1.63
2022-08-11T02:47:38.826Z,2.15
2022-08-11T02:50:30.937Z,1.98
2022-08-11T02:53:34.993Z,1.92
2022-08-11T02:56:23.237Z,1.77
2022-08-11T02:59:50.516Z,1.90
2022-08-11T03:02:33.527Z,2.00
2022-08-11T03:05:21.602Z,1.60
2022-08-11T03:08:26.906Z,1.98
2022-08-11T03:11:24.313Z,2.30
2022-08-11T03:14:34.806Z,2.20
2022-08-11T03:17:31.541Z,2.08
2022-08-11T03:20:12.763Z,2.45
2022-08-11T03:22:55.954Z,3.50
2022-08-11T03:25:32.953Z,3.25
2022-08-11T03:28:22.315Z,3.80
2022-08-11T03:31:06.708Z,3.30
2022-08-11T03:34:07.330Z,3.28
2022-08-11T03:37:17.258Z,2.88
2022-08-11T03:40:00.389Z,2.65
2022-08-11T03:42:58.414Z,2.80
2022-08-11T03:45:40.717Z,2.22
2022-08-11T03:48:20.614Z,2.90
2022-08-11T03:51:19.594Z,2.42
2022-08-11T03:54:10.504Z,2.20
2022-08-11T03:57:17.131Z,1.85
2022-08-11T04:00:11.454Z,2.00
2022-08-11T04:03:14.053Z,2.08
2022-08-11T04:06:29.246Z,1.95
2022-08-11T04:09:36.076Z,2.10
2022-08-11T04:12:45.591Z,1.90
2022-08-11T04:16:11.576Z,2.00
2022-08-11T04:19:05.585Z,2.03
2022-08-11T04:22:08.024Z,1.88
2022-08-11T04:24:50.144Z,2.25
2022-08-11T04:27:40.683Z,1.85
2022-08-11T04:30:17.936Z,2.20
2022-08-11T04:32:55.323Z,1.90
2022-08-11T04:35:48.611Z,1.67
2022-08-11T04:38:38.895Z,2.20
2022-08-11T04:42:04.113Z,2.50
2022-08-11T04:45:17.345Z,2.15
2022-08-11T04:48:22.555Z,2.00
2022-08-11T04:51:47.384Z,2.40
2022-08-11T04:54:59.645Z,2.25
2022-08-11T04:58:10.987Z,2.45
2022-08-11T05:01:09.700Z,2.20
2022-08-11T05:04:04.734Z,2.53
2022-08-11T05:07:12.374Z,2.17
2022-08-11T05:10:04.192Z,2.47
2022-08-11T05:13:22.983Z,2.88
2022-08-11T05:16:16.172Z,6.85
2022-08-11T05:19:16.063Z,5.93
2022-08-11T05:22:12.030Z,5.95
2022-08-11T05:25:07.019Z,5.05
2022-08-11T05:28:09.045Z,5.68
2022-08-11T05:31:01.184Z,2.60
2022-08-11T05:34:01.752Z,2.35
2022-08-11T05:36:51.272Z,2.47
2022-08-11T05:39:48.004Z,2.28
2022-08-11T05:42:38.442Z,2.05
2022-08-11T05:46:02.548Z,3.70
2022-08-11T05:48:51.602Z,2.25
2022-08-11T05:51:39.463Z,2.10
2022-08-11T05:54:46.012Z,1.70
2022-08-11T05:57:42.343Z,1.60
2022-08-11T06:00:20.425Z,2.42
2022-08-11T06:02:55.626Z,1.98
2022-08-11T06:05:44.122Z,1.98
2022-08-11T06:08:15.137Z,2.20
2022-08-11T06:10:45.818Z,1.75
2022-08-11T06:13:18.715Z,2.28
2022-08-11T06:15:50.447Z,2.15
2022-08-11T06:18:20.560Z,2.75
2022-08-11T06:20:49.958Z,1.88
2022-08-11T06:23:20.830Z,2.65
2022-08-11T06:25:51.579Z,2.42
2022-08-11T06:28:30.897Z,1.95
2022-08-11T06:31:00.522Z,2.20
2022-08-11T06:33:47.199Z,1.90
2022-08-11T06:36:34.690Z,2.03
2022-08-11T06:39:24.928Z,2.00
2022-08-11T06:42:11.346Z,2.03
2022-08-11T06:45:25.291Z,1.52
2022-08-11T06:47:54.897Z,1.88
2022-08-11T06:50:42.499Z,1.77
2022-08-11T06:53:12.649Z,1.88
2022-08-11T06:56:03.078Z,1.65
2022-08-11T06:59:01.138Z,1.90
2022-08-11T07:01:36.003Z,1.50
2022-08-11T07:04:10.767Z,1.10
2022-08-11T07:06:51.017Z,1.20
2022-08-11T07:10:00.498Z,1.27
2022-08-11T07:13:02.201Z,1.40
2022-08-11T07:16:11.464Z,1.20
2022-08-11T07:18:54.536Z,0.95
2022-08-11T07:22:02.821Z,1.17
2022-08-11T07:25:03.066Z,1.58
2022-08-11T07:28:06.708Z,1.50
2022-08-11T07:30:40.209Z,1.77
2022-08-11T07:33:11.157Z,1.20
2022-08-11T07:36:01.698Z,0.95
2022-08-11T07:38:47.663Z,1.50
2022-08-11T07:41:18.788Z,1.20
2022-08-11T07:43:51.087Z,1.20
2022-08-11T07:46:39.348Z,1.02
2022-08-11T07:49:29.186Z,1.17
2022-08-11T07:52:16.530Z,1.10
2022-08-11T07:54:45.388Z,1.40
2022-08-11T07:58:13.804Z,1.80
2022-08-11T08:00:46.444Z,1.10
2022-08-11T08:03:53.869Z,1.40
2022-08-11T08:06:43.428Z,1.13
2022-08-11T08:09:31.729Z,1.20
2022-08-11T08:12:21.178Z,1.08
2022-08-11T08:15:10.485Z,1.33
2022-08-11T08:18:20.400Z,1.35
2022-08-11T08:20:52.247Z,1.65
2022-08-11T08:23:34.012Z,1.15
2022-08-11T08:26:16.702Z,1.55
2022-08-11T08:28:46.921Z,1.38
2022-08-11T08:31:16.240Z,1.70
2022-08-11T08:33:45.366Z,1.30
2022-08-11T08:36:17.322Z,0.90
2022-08-11T08:38:53.447Z,1.10
2022-08-11T08:41:37.091Z,1.60
2022-08-11T08:44:35.027Z,1.15
2022-08-11T08:47:00.898Z,1.77
2022-08-11T08:49:40.282Z,1.42
2022-08-11T08:52:30.685Z,1.63
2022-08-11T08:55:04.987Z,1.60
2022-08-11T08:57:39.601Z,1.00
2022-08-11T09:00:13.808Z,1.30
2022-08-11T09:02:46.110Z,1.20
2022-08-11T09:05:18.425Z,1.52
2022-08-11T09:07:51.458Z,1.48
2022-08-11T09:10:20.811Z,1.40
2022-08-11T09:12:51.755Z,1.13
2022-08-11T09:15:22.618Z,0.95
2022-08-11T09:18:03.988Z,1.00
2022-08-11T09:20:39.431Z,1.02
2022-08-11T09:24:07.826Z,0.90
2022-08-11T09:26:37.129Z,0.80
2022-08-11T09:29:06.287Z,1.35
2022-08-11T09:31:39.646Z,0.90
2022-08-11T09:34:14.389Z,1.05
2022-08-11T09:37:03.688Z,1.08
2022-08-11T09:39:55.669Z,1.10
2022-08-11T09:42:45.558Z,1.95
2022-08-11T09:45:15.138Z,1.25
2022-08-11T09:47:46.029Z,1.15
2022-08-11T09:50:17.627Z,1.10
2022-08-11T09:53:16.878Z,1.30
2022-08-11T09:55:39.660Z,1.00
2022-08-11T09:58:35.200Z,1.17
2022-08-11T10:01:04.273Z,1.10
2022-08-11T10:03:40.405Z,1.05
2022-08-11T10:06:33.308Z,1.27
2022-08-11T10:09:05.784Z,1.30
2022-08-11T10:11:38.053Z,1.20
2022-08-11T10:14:32.725Z,1.45
2022-08-11T10:17:08.543Z,1.10
2022-08-11T10:19:38.312Z,1.20
2022-08-11T10:22:27.736Z,1.40
2022-08-11T10:25:19.623Z,1.30
2022-08-11T10:28:28.805Z,1.27
2022-08-11T10:31:11.234Z,1.30
2022-08-11T10:34:00.473Z,1.15
2022-08-11T10:36:31.763Z,1.25
2022-08-11T10:39:02.885Z,1.00
2022-08-11T10:42:06.861Z,1.20
2022-08-11T10:44:44.254Z,1.13
2022-08-11T10:47:33.642Z,1.45
2022-08-11T10:50:30.541Z,1.42
2022-08-11T10:53:20.190Z,1.60
2022-08-11T10:56:08.205Z,1.55
2022-08-11T10:58:51.521Z,1.08
2022-08-11T11:01:35.283Z,1.20
2022-08-11T11:04:11.178Z,1.33
2022-08-11T11:06:44.439Z,1.10
2022-08-11T11:09:21.935Z,1.35
2022-08-11T11:12:14.411Z,1.40
2022-08-11T11:15:03.258Z,1.60
2022-08-11T11:17:57.468Z,1.20
2022-08-11T11:20:38.408Z,2.00
2022-08-11T11:23:47.908Z,1.17
2022-08-11T11:26:31.220Z,1.10
2022-08-11T11:29:31.770Z,1.20
2022-08-11T11:32:00.019Z,1.15
2022-08-11T11:34:54.117Z,1.33
2022-08-11T11:37:24.439Z,1.40
2022-08-11T11:39:55.749Z,1.20
2022-08-11T11:42:24.510Z,1.50
2022-08-11T11:44:55.990Z,1.08
2022-08-11T11:47:26.969Z,1.50
2022-08-11T11:49:55.826Z,1.40
2022-08-11T11:52:24.757Z,1.20
2022-08-11T11:54:57.263Z,1.45
2022-08-11T11:57:59.042Z,1.25
2022-08-11T12:00:49.487Z,1.20
2022-08-11T12:03:20.339Z,1.30
2022-08-11T12:05:49.186Z,1.13
2022-08-11T12:08:18.181Z,1.75
2022-08-11T12:11:25.971Z,1.30
2022-08-11T12:13:59.287Z,1.20
2022-08-11T12:16:32.774Z,1.65
2022-08-11T12:19:08.366Z,1.55
2022-08-11T12:21:59.337Z,1.40
2022-08-11T12:24:53.552Z,1.50
2022-08-11T12:27:24.897Z,1.10
2022-08-11T12:30:00.541Z,1.60
2022-08-11T12:32:33.050Z,1.42
2022-08-11T12:37:41.093Z,1.50
2022-08-11T12:40:42.648Z,0.90
2022-08-11T12:43:46.100Z,1.30
2022-08-11T12:46:35.264Z,1.40
2022-08-11T12:49:31.930Z,1.60
2022-08-11T12:52:14.701Z,1.48
2022-08-11T12:54:52.569Z,1.48
2022-08-11T12:57:56.008Z,1.48
2022-08-11T13:00:45.048Z,1.10
2022-08-11T13:03:39.001Z,1.40
2022-08-11T13:06:08.849Z,1.30
2022-08-11T13:08:40.249Z,1.42
2022-08-11T13:11:55.757Z,1.45
2022-08-11T13:14:18.549Z,1.35
2022-08-11T13:17:06.688Z,1.45
2022-08-11T13:19:38.897Z,1.27
2022-08-11T13:22:07.673Z,1.30
2022-08-11T13:24:37.115Z,1.20
2022-08-11T13:27:06.139Z,1.27
2022-08-11T13:29:36.327Z,1.48
2022-08-11T13:32:04.859Z,1.30
2022-08-11T13:34:35.597Z,1.50
2022-08-11T13:37:05.811Z,1.60
2022-08-11T13:39:36.723Z,1.10
2022-08-11T13:42:06.338Z,1.25
2022-08-11T13:44:38.779Z,1.10
2022-08-11T13:47:09.369Z,1.10
2022-08-11T13:49:40.691Z,1.48
2022-08-11T13:52:17.258Z,1.20
2022-08-11T13:54:49.953Z,1.50
2022-08-11T13:58:08.233Z,1.48
2022-08-11T14:00:13.188Z,1.30
2022-08-11T14:02:58.382Z,1.60
2022-08-11T14:05:34.547Z,1.70
2022-08-11T14:08:08.229Z,1.35
2022-08-11T14:12:22.293Z,1.55
2022-08-11T14:14:13.957Z,2.00
2022-08-11T14:16:45.167Z,1.33
2022-08-11T14:19:15.818Z,2.05
2022-08-11T14:22:07.572Z,1.73
2022-08-11T14:24:41.719Z,1.33
2022-08-11T14:28:32.695Z,1.52
2022-08-11T14:30:03.197Z,1.60
2022-08-11T14:32:32.629Z,1.10
2022-08-11T14:35:02.818Z,1.80
2022-08-11T14:37:30.998Z,1.40
2022-08-11T14:40:21.901Z,1.45
2022-08-11T14:43:08.747Z,1.40
2022-08-11T14:45:58.666Z,1.60
2022-08-11T14:48:27.799Z,1.50
2022-08-11T14:50:57.157Z,1.58
2022-08-11T14:53:26.148Z,1.45
2022-08-11T14:56:13.914Z,1.25
2022-08-11T14:58:43.767Z,1.58
2022-08-11T15:01:31.611Z,1.45
2022-08-11T15:04:27.336Z,1.63
2022-08-11T15:06:49.606Z,1.70
2022-08-11T15:09:19.029Z,1.42
2022-08-11T15:12:06.190Z,1.10
2022-08-11T15:15:14.038Z,1.58
2022-08-11T15:17:44.451Z,1.30
2022-08-11T15:20:37.326Z,1.30
2022-08-11T15:23:24.927Z,1.33
2022-08-11T15:25:59.897Z,1.70
2022-08-11T15:28:50.218Z,1.45
2022-08-11T15:31:27.968Z,1.33
2022-08-11T15:34:20.539Z,1.40
2022-08-11T15:37:09.855Z,1.30
2022-08-11T15:40:32.849Z,1.27
2022-08-11T15:44:02.604Z,1.25
2022-08-11T15:46:49.114Z,1.40
2022-08-11T15:50:10.638Z,1.33
2022-08-11T15:52:24.220Z,1.55
2022-08-11T15:54:53.037Z,1.48
2022-08-11T15:57:40.654Z,1.20
2022-08-11T16:00:28.819Z,1.30
2022-08-11T16:03:19.349Z,1.50
2022-08-11T16:05:52.897Z,1.30
2022-08-11T16:08:32.541Z,1.30
2022-08-11T16:11:03.980Z,1.30
2022-08-11T16:13:42.420Z,1.63
2022-08-11T16:16:15.024Z,1.10
2022-08-11T16:18:52.789Z,1.40
2022-08-11T16:21:36.179Z,1.35
2022-08-11T16:27:02.077Z,1.00
2022-08-11T16:27:13.159Z,1.23
2022-08-11T16:29:48.274Z,1.08
2022-08-11T16:32:23.768Z,1.10
2022-08-11T16:35:16.687Z,1.38
2022-08-11T16:38:05.723Z,1.20
2022-08-11T16:40:34.915Z,1.65
2022-08-11T16:43:26.343Z,1.70
2022-08-11T16:46:14.929Z,1.33
2022-08-11T16:48:46.334Z,1.48
2022-08-11T16:51:15.734Z,1.27
2022-08-11T16:53:49.022Z,1.05
2022-08-11T16:56:48.581Z,1.15
2022-08-11T16:59:27.121Z,1.63
2022-08-11T17:02:09.041Z,1.27
2022-08-11T17:05:02.843Z,1.27
2022-08-11T17:07:50.191Z,1.35
2022-08-11T17:10:51.076Z,1.27
2022-08-11T17:13:37.379Z,1.42
2022-08-11T17:16:12.925Z,1.30
2022-08-11T17:18:58.500Z,1.42
2022-08-11T17:22:08.729Z,1.60
2022-08-11T17:24:46.720Z,1.30
2022-08-11T17:27:18.473Z,1.35
2022-08-11T17:29:59.160Z,1.08
2022-08-11T17:32:57.321Z,1.50
2022-08-11T17:35:34.593Z,1.23
2022-08-11T17:38:08.430Z,1.75
2022-08-11T17:40:40.641Z,1.35
2022-08-11T17:43:29.019Z,1.70
2022-08-11T17:46:17.414Z,1.42
2022-08-11T17:48:48.318Z,1.27
2022-08-11T17:51:39.210Z,1.33
2022-08-11T17:54:28.447Z,1.60
2022-08-11T17:57:20.236Z,1.23
2022-08-11T17:59:53.311Z,1.33
2022-08-11T18:02:48.978Z,1.73
2022-08-11T18:05:20.450Z,1.52
2022-08-11T18:08:12.395Z,1.25
2022-08-11T18:11:01.250Z,1.30
2022-08-11T18:13:51.930Z,1.60
2022-08-11T18:16:39.981Z,1.92
2022-08-11T18:19:28.089Z,1.50
2022-08-11T18:22:27.304Z,1.60
2022-08-11T18:25:20.490Z,1.80
2022-08-11T18:31:03.810Z,1.70
2022-08-11T18:34:25.550Z,1.90
2022-08-11T18:37:29.153Z,1.50
2022-08-11T18:40:33.539Z,1.88
2022-08-11T18:43:28.741Z,1.58
2022-08-11T18:46:23.691Z,2.03
2022-08-11T18:49:15.885Z,1.95
2022-08-11T18:52:09.273Z,1.55
2022-08-11T18:54:58.971Z,1.95
2022-08-11T18:57:49.356Z,1.67
2022-08-11T19:00:44.081Z,1.40
2022-08-11T19:03:43.352Z,1.90
2022-08-11T19:06:41.531Z,1.95
2022-08-11T19:09:32.988Z,1.90
2022-08-11T19:12:20.634Z,1.70
2022-08-11T19:15:10.531Z,1.75
2022-08-11T19:18:03.611Z,2.47
2022-08-11T19:20:53.101Z,2.15
2022-08-11T19:23:57.728Z,1.80
2022-08-11T19:26:46.899Z,1.98
2022-08-11T19:30:12.035Z,2.13
2022-08-11T19:32:48.611Z,1.70
2022-08-11T19:35:36.512Z,1.73
2022-08-11T19:38:24.512Z,1.80
2022-08-11T19:41:12.740Z,1.70
2022-08-11T19:44:05.192Z,2.00
2022-08-11T19:46:55.122Z,1.70
2022-08-11T19:49:44.429Z,1.35
2022-08-11T19:52:32.433Z,1.70
2022-08-11T19:55:21.217Z,1.35
2022-08-11T19:58:09.531Z,1.80
2022-08-11T20:00:57.209Z,1.65
2022-08-11T20:03:44.001Z,1.95
2022-08-11T20:06:34.751Z,2.10
2022-08-11T20:09:23.381Z,1.88
2022-08-11T20:12:14.953Z,3.25
2022-08-11T20:15:05.991Z,2.08
2022-08-11T20:17:57.429Z,1.80
2022-08-11T20:20:46.335Z,2.33
2022-08-11T20:23:36.141Z,1.77
2022-08-11T20:26:31.087Z,1.90
2022-08-11T20:29:20.573Z,1.80
2022-08-11T20:32:09.383Z,1.70
2022-08-11T20:34:58.923Z,1.95
2022-08-11T20:37:51.300Z,1.75
2022-08-11T20:40:45.192Z,1.65
2022-08-11T20:44:06.286Z,1.75
2022-08-11T20:46:47.801Z,1.60
2022-08-11T20:49:44.885Z,1.45
2022-08-11T20:52:40.730Z,1.70
2022-08-11T20:55:51.684Z,1.48
2022-08-11T20:59:11.179Z,1.70
2022-08-11T21:01:45.830Z,1.52
2022-08-11T21:04:33.657Z,1.67
2022-08-11T21:07:29.173Z,1.65
2022-08-11T21:10:23.486Z,2.60
2022-08-11T21:13:24.252Z,1.90
2022-08-11T21:16:25.940Z,1.58
2022-08-11T21:20:01.692Z,2.00
2022-08-11T21:22:35.933Z,1.45
2022-08-11T21:25:27.992Z,1.45
2022-08-11T21:28:20.862Z,1.45
2022-08-11T21:31:09.376Z,1.50
2022-08-11T21:33:59.392Z,1.42
2022-08-11T21:36:47.922Z,0.93
2022-08-11T21:39:38.945Z,1.95
2022-08-11T21:42:26.741Z,1.40
2022-08-11T21:45:15.331Z,1.70
2022-08-11T21:48:04.722Z,1.67
2022-08-11T21:50:51.463Z,2.45
2022-08-11T21:53:39.252Z,1.92
2022-08-11T21:56:27.626Z,4.00
2022-08-11T21:59:16.750Z,2.72
2022-08-11T22:02:05.375Z,3.00
2022-08-11T22:04:56.309Z,2.30
2022-08-11T22:07:43.687Z,1.80
2022-08-11T22:10:42.515Z,2.53
2022-08-11T22:13:33.732Z,2.83
2022-08-11T22:16:20.592Z,2.30
2022-08-11T22:19:09.967Z,2.70
2022-08-11T22:22:03.398Z,2.13
2022-08-11T22:24:54.064Z,2.42
2022-08-11T22:27:41.472Z,2.60
2022-08-11T22:30:31.232Z,2.13
2022-08-11T22:33:25.553Z,2.35
2022-08-11T22:36:17.194Z,2.78
2022-08-11T22:39:06.082Z,2.50
2022-08-11T22:41:53.090Z,2.10
2022-08-11T22:44:40.258Z,2.35
2022-08-11T22:47:36.400Z,2.38
2022-08-11T22:50:29.465Z,2.20
2022-08-11T22:53:16.914Z,2.05
2022-08-11T22:56:04.853Z,2.30
2022-08-11T22:58:53.892Z,2.75
2022-08-11T23:01:54.715Z,2.53
2022-08-11T23:04:45.403Z,2.67
2022-08-11T23:07:50.345Z,2.30
2022-08-11T23:10:43.670Z,2.45
2022-08-11T23:13:31.041Z,2.38
2022-08-11T23:16:19.024Z,2.70
2022-08-11T23:19:08.048Z,2.53
2022-08-11T23:21:56.864Z,2.25
2022-08-11T23:24:44.656Z,2.08
2022-08-11T23:27:33.064Z,2.63
2022-08-11T23:30:21.262Z,2.70
2022-08-11T23:33:13.191Z,1.95
2022-08-11T23:36:05.316Z,2.35
2022-08-11T23:38:53.312Z,2.00
2022-08-11T23:41:40.320Z,2.30
2022-08-11T23:44:28.568Z,1.70
2022-08-11T23:47:19.424Z,2.15
2022-08-11T23:50:07.510Z,2.08
2022-08-11T23:52:55.669Z,2.22
2022-08-11T23:55:42.639Z,2.38
2022-08-11T23:58:30.980Z,2.20
